METAR
METAR MDST 290500Z 26005KT 9999 FEW016CB SCT018 BKN070 23/20 Q1014
CB/NE/E/S=
METAR MDPC 290500Z 01004KT 9999 FEW018 22/21 Q1014 NOSIG=
METAR MDSD 290500Z 02004KT 9999 SCT018 BKN080 24/22 Q1014=